createdAt,value
2022-09-14T00:00:43.806Z,85.39
2022-09-14T00:03:33.950Z,85.38
2022-09-14T00:06:11.657Z,85.17
2022-09-14T00:08:44.634Z,84.76
2022-09-14T00:11:18.932Z,84.88
2022-09-14T00:13:51.788Z,84.57
2022-09-14T00:16:26.308Z,83.96
2022-09-14T00:19:01.123Z,83.96
2022-09-14T00:21:33.577Z,83.48
2022-09-14T00:24:07.412Z,83.15
2022-09-14T00:26:39.639Z,83.32
2022-09-14T00:29:13.258Z,83.97
2022-09-14T00:31:45.596Z,84.33
2022-09-14T00:34:19.079Z,83.72
2022-09-14T00:36:53.206Z,84.37
2022-09-14T00:39:26.106Z,84.28
2022-09-14T00:41:58.452Z,84.31
2022-09-14T00:45:06.948Z,84.46
2022-09-14T00:47:39.103Z,84.67
2022-09-14T00:50:12.532Z,84.57
2022-09-14T00:52:48.672Z,84.50
2022-09-14T00:55:23.615Z,84.35
2022-09-14T00:57:55.485Z,83.87
2022-09-14T01:00:29.630Z,83.77
2022-09-14T01:03:02.430Z,83.48
2022-09-14T01:05:46.440Z,83.93
2022-09-14T01:08:38.810Z,84.21
2022-09-14T01:11:23.119Z,84.34
2022-09-14T01:14:04.535Z,84.03
2022-09-14T01:16:44.131Z,83.44
2022-09-14T01:19:26.192Z,84.03
2022-09-14T01:22:08.664Z,84.22
2022-09-14T01:24:47.830Z,83.92
2022-09-14T01:27:30.017Z,83.80
2022-09-14T01:30:08.078Z,83.33
2022-09-14T01:32:46.514Z,83.91
2022-09-14T01:35:24.298Z,83.40
2022-09-14T01:38:02.074Z,83.16
2022-09-14T01:40:38.160Z,83.26
2022-09-14T01:43:13.852Z,82.97
2022-09-14T01:45:50.998Z,83.58
2022-09-14T01:48:28.324Z,83.83
2022-09-14T01:51:02.522Z,84.73
2022-09-14T01:53:40.447Z,84.54
2022-09-14T01:56:20.224Z,84.70
2022-09-14T01:58:59.136Z,84.41
2022-09-14T02:01:36.541Z,84.57
2022-09-14T02:04:13.109Z,84.57
2022-09-14T02:06:48.808Z,84.05
2022-09-14T02:09:26.632Z,84.54
2022-09-14T02:12:00.943Z,85.41
2022-09-14T02:14:33.732Z,85.23
2022-09-14T02:17:08.274Z,84.81
2022-09-14T02:19:46.027Z,83.86
2022-09-14T02:22:18.381Z,83.72
2022-09-14T02:24:51.336Z,83.63
2022-09-14T02:27:23.684Z,82.87
2022-09-14T02:29:56.376Z,82.61
2022-09-14T02:32:33.315Z,82.63
2022-09-14T02:35:11.600Z,82.79
2022-09-14T02:37:51.356Z,82.46
2022-09-14T02:40:31.470Z,82.23
2022-09-14T02:43:13.724Z,82.05
2022-09-14T02:45:55.161Z,81.77
2022-09-14T02:48:36.037Z,81.90
2022-09-14T02:51:16.489Z,81.87
2022-09-14T02:53:55.102Z,81.73
2022-09-14T02:56:28.492Z,81.48
2022-09-14T02:59:00.816Z,81.52
2022-09-14T03:01:33.043Z,82.04
2022-09-14T03:04:05.591Z,82.79
2022-09-14T03:06:37.851Z,82.89
2022-09-14T03:09:10.069Z,82.08
2022-09-14T03:11:42.104Z,81.30
2022-09-14T03:14:14.371Z,80.92
2022-09-14T03:16:46.413Z,81.01
2022-09-14T03:19:18.912Z,81.01
2022-09-14T03:21:51.037Z,80.80
2022-09-14T03:24:23.389Z,80.86
2022-09-14T03:26:55.703Z,80.60
2022-09-14T03:29:27.819Z,80.75
2022-09-14T03:31:59.838Z,80.69
2022-09-14T03:34:32.046Z,80.28
2022-09-14T03:37:04.147Z,80.74
2022-09-14T03:39:36.088Z,80.46
2022-09-14T03:42:08.450Z,80.40
2022-09-14T03:44:40.394Z,80.55
2022-09-14T03:47:12.404Z,80.35
2022-09-14T03:49:44.433Z,80.32
2022-09-14T03:52:16.600Z,79.90
2022-09-14T03:54:49.221Z,79.90
2022-09-14T03:57:21.540Z,79.79
2022-09-14T03:59:53.462Z,79.01
2022-09-14T04:02:25.769Z,79.02
2022-09-14T04:04:57.798Z,78.88
2022-09-14T04:07:30.044Z,79.02
2022-09-14T04:10:02.272Z,78.47
2022-09-14T04:12:38.529Z,78.37
2022-09-14T04:15:11.922Z,79.03
2022-09-14T04:17:43.903Z,78.98
2022-09-14T04:20:16.189Z,78.64
2022-09-14T04:22:48.458Z,78.47
2022-09-14T04:25:23.122Z,77.43
2022-09-14T04:28:16.803Z,77.34
2022-09-14T04:30:55.202Z,77.35
2022-09-14T04:33:28.039Z,78.01
2022-09-14T04:36:03.019Z,78.62
2022-09-14T04:38:36.222Z,78.34
2022-09-14T04:41:11.544Z,78.26
2022-09-14T04:43:44.974Z,78.20
2022-09-14T04:46:20.875Z,78.20
2022-09-14T04:48:53.715Z,78.98
2022-09-14T04:51:27.969Z,79.37
2022-09-14T04:54:02.670Z,79.08
2022-09-14T04:56:34.570Z,78.69
2022-09-14T04:59:07.154Z,78.76
2022-09-14T05:01:41.126Z,78.90
2022-09-14T05:04:14.844Z,78.76
2022-09-14T05:06:47.255Z,78.95
2022-09-14T05:09:20.461Z,79.03
2022-09-14T05:11:52.995Z,79.20
2022-09-14T05:14:25.419Z,78.62
2022-09-14T05:17:01.297Z,78.08
2022-09-14T05:19:33.759Z,78.43
2022-09-14T05:22:05.815Z,78.47
2022-09-14T05:24:38.381Z,78.82
2022-09-14T05:27:10.847Z,78.90
2022-09-14T05:29:42.934Z,78.82
2022-09-14T05:32:15.397Z,79.17
2022-09-14T05:34:47.712Z,79.19
2022-09-14T05:37:19.677Z,78.94
2022-09-14T05:39:51.786Z,79.03
2022-09-14T05:42:23.723Z,78.65
2022-09-14T05:44:56.336Z,79.01
2022-09-14T05:47:29.990Z,79.05
2022-09-14T05:50:02.008Z,78.57
2022-09-14T05:52:33.991Z,79.08
2022-09-14T05:55:07.305Z,78.63
2022-09-14T05:57:39.781Z,79.16
2022-09-14T06:00:13.891Z,79.49
2022-09-14T06:02:50.057Z,78.87
2022-09-14T06:05:21.652Z,78.42
2022-09-14T06:07:56.791Z,78.50
2022-09-14T06:10:28.813Z,78.68
2022-09-14T06:13:01.946Z,78.56
2022-09-14T06:15:36.020Z,77.98
2022-09-14T06:18:07.983Z,79.12
2022-09-14T06:20:40.123Z,78.49
2022-09-14T06:23:12.488Z,78.02
2022-09-14T06:25:44.677Z,77.70
2022-09-14T06:28:16.813Z,78.66
2022-09-14T06:30:49.572Z,78.16
2022-09-14T06:33:22.073Z,78.60
2022-09-14T06:36:01.288Z,77.55
2022-09-14T06:38:34.103Z,77.86
2022-09-14T06:41:08.240Z,78.06
2022-09-14T06:43:42.185Z,78.59
2022-09-14T06:46:19.601Z,77.79
2022-09-14T06:48:53.248Z,77.01
2022-09-14T06:51:28.236Z,76.79
2022-09-14T06:54:01.133Z,77.15
2022-09-14T06:56:34.997Z,76.80
2022-09-14T06:59:09.099Z,76.80
2022-09-14T07:01:42.310Z,76.48
2022-09-14T07:04:15.138Z,76.45
2022-09-14T07:06:49.580Z,75.94
2022-09-14T07:09:22.235Z,76.03
2022-09-14T07:11:54.993Z,75.95
2022-09-14T07:14:31.595Z,76.08
2022-09-14T07:17:05.144Z,75.91
2022-09-14T07:19:37.798Z,75.99
2022-09-14T07:22:10.048Z,75.30
2022-09-14T07:24:42.544Z,75.09
2022-09-14T07:27:15.174Z,75.50
2022-09-14T07:29:47.465Z,74.66
2022-09-14T07:32:19.911Z,74.77
2022-09-14T07:34:52.359Z,74.34
2022-09-14T07:37:24.830Z,73.84
2022-09-14T07:39:57.350Z,74.15
2022-09-14T07:42:29.537Z,74.94
2022-09-14T07:45:01.871Z,74.39
2022-09-14T07:47:34.517Z,73.62
2022-09-14T07:50:07.550Z,73.95
2022-09-14T07:52:40.309Z,74.36
2022-09-14T07:55:13.502Z,74.00
2022-09-14T07:57:56.134Z,74.03
2022-09-14T08:00:29.380Z,73.43
2022-09-14T08:03:02.030Z,72.81
2022-09-14T08:05:34.360Z,73.47
2022-09-14T08:08:06.717Z,72.56
2022-09-14T08:10:38.769Z,72.77
2022-09-14T08:13:10.718Z,72.47
2022-09-14T08:15:42.599Z,71.91
2022-09-14T08:18:15.031Z,71.76
2022-09-14T08:20:46.985Z,72.01
2022-09-14T08:23:18.934Z,71.52
2022-09-14T08:25:50.809Z,72.16
2022-09-14T08:28:22.919Z,71.80
2022-09-14T08:30:55.218Z,71.12
2022-09-14T08:33:27.465Z,70.26
2022-09-14T08:35:59.559Z,70.30
2022-09-14T08:38:31.818Z,69.95
2022-09-14T08:41:11.776Z,69.98
2022-09-14T08:43:44.053Z,70.68
2022-09-14T08:46:25.647Z,70.27
2022-09-14T08:48:57.852Z,68.91
2022-09-14T08:51:30.967Z,68.66
2022-09-14T08:54:03.091Z,68.35
2022-09-14T08:56:37.460Z,68.21
2022-09-14T08:59:37.377Z,68.66
2022-09-14T09:02:26.757Z,67.64
2022-09-14T09:05:04.884Z,67.91
2022-09-14T09:07:48.902Z,67.25
2022-09-14T09:10:21.948Z,66.90
2022-09-14T09:12:58.401Z,66.41
2022-09-14T09:15:33.662Z,65.27
2022-09-14T09:18:10.593Z,65.74
2022-09-14T09:20:47.438Z,65.44
2022-09-14T09:23:22.454Z,64.14
2022-09-14T09:26:00.226Z,64.44
2022-09-14T09:28:33.675Z,64.68
2022-09-14T09:31:14.505Z,64.37
2022-09-14T09:33:59.379Z,63.47
2022-09-14T09:36:36.739Z,63.76
2022-09-14T09:39:09.244Z,62.08
2022-09-14T09:41:47.439Z,63.03
2022-09-14T09:44:19.733Z,62.00
2022-09-14T09:46:55.520Z,60.83
2022-09-14T09:49:31.312Z,61.15
2022-09-14T09:52:12.303Z,61.03
2022-09-14T09:54:50.555Z,60.95
2022-09-14T09:57:28.757Z,60.79
2022-09-14T10:00:22.421Z,60.69
2022-09-14T10:02:56.123Z,60.06
2022-09-14T10:05:31.669Z,59.33
2022-09-14T10:08:11.200Z,59.55
2022-09-14T10:10:45.006Z,59.28
2022-09-14T10:13:27.214Z,58.49
2022-09-14T10:16:13.365Z,58.52
2022-09-14T10:18:50.792Z,59.55
2022-09-14T10:21:25.761Z,59.87
2022-09-14T10:24:19.394Z,60.27
2022-09-14T10:26:51.312Z,60.03
2022-09-14T10:29:37.815Z,59.50
2022-09-14T10:32:20.090Z,59.18
2022-09-14T10:34:52.822Z,58.77
2022-09-14T10:37:33.628Z,59.07
2022-09-14T10:40:18.751Z,59.01
2022-09-14T10:43:05.721Z,58.70
2022-09-14T10:45:42.743Z,59.43
2022-09-14T10:48:31.959Z,58.48
2022-09-14T10:51:20.654Z,58.81
2022-09-14T10:53:58.567Z,58.87
2022-09-14T10:56:42.655Z,58.93
2022-09-14T10:59:27.844Z,58.15
2022-09-14T11:02:19.912Z,57.05
2022-09-14T11:05:12.256Z,56.23
2022-09-14T11:07:58.344Z,56.85
2022-09-14T11:10:37.181Z,56.28
2022-09-14T11:13:31.986Z,55.65
2022-09-14T11:16:13.874Z,56.57
2022-09-14T11:18:53.639Z,55.86
2022-09-14T11:21:38.578Z,56.41
2022-09-14T11:24:20.585Z,56.52
2022-09-14T11:27:01.556Z,55.71
2022-09-14T11:29:38.481Z,56.11
2022-09-14T11:32:21.464Z,56.05
2022-09-14T11:34:58.503Z,56.45
2022-09-14T11:37:40.772Z,56.66
2022-09-14T11:40:22.166Z,57.28
2022-09-14T11:43:02.158Z,56.69
2022-09-14T11:45:41.235Z,57.25
2022-09-14T11:48:41.781Z,57.60
2022-09-14T11:51:16.140Z,57.11
2022-09-14T11:53:48.558Z,56.95
2022-09-14T11:56:26.603Z,57.16
2022-09-14T11:59:01.027Z,56.27
2022-09-14T12:01:37.649Z,56.16
2022-09-14T12:04:18.178Z,57.26
2022-09-14T12:06:57.964Z,56.79
2022-09-14T12:09:45.658Z,56.30
2022-09-14T12:12:36.561Z,56.34
2022-09-14T12:15:29.274Z,56.73
2022-09-14T12:18:23.088Z,57.23
2022-09-14T12:21:07.367Z,56.79
2022-09-14T12:23:52.453Z,57.22
2022-09-14T12:26:33.798Z,57.10
2022-09-14T12:29:25.891Z,57.34
2022-09-14T12:32:25.102Z,55.70
2022-09-14T12:35:33.628Z,55.37
2022-09-14T12:38:35.512Z,54.65
2022-09-14T12:41:47.138Z,54.46
2022-09-14T12:44:40.607Z,55.31
2022-09-14T12:47:51.033Z,56.11
2022-09-14T12:50:24.836Z,55.94
2022-09-14T12:53:16.707Z,55.78
2022-09-14T12:55:59.399Z,55.35
2022-09-14T12:58:59.295Z,55.54
2022-09-14T13:01:41.566Z,55.58
2022-09-14T13:04:18.145Z,55.29
2022-09-14T13:06:52.386Z,55.53
2022-09-14T13:09:26.886Z,55.09
2022-09-14T13:12:01.116Z,54.92
2022-09-14T13:14:37.819Z,55.77
2022-09-14T13:17:16.413Z,55.95
2022-09-14T13:19:59.494Z,56.30
2022-09-14T13:22:32.833Z,56.75
2022-09-14T13:25:04.995Z,56.31
2022-09-14T13:27:39.592Z,55.98
2022-09-14T13:30:22.933Z,55.97
2022-09-14T13:32:58.122Z,56.47
2022-09-14T13:35:37.173Z,56.63
2022-09-14T13:38:15.741Z,56.35
2022-09-14T13:40:49.858Z,56.76
2022-09-14T13:43:24.085Z,56.65
2022-09-14T13:45:57.206Z,57.50
2022-09-14T13:48:30.166Z,56.64
2022-09-14T13:51:02.582Z,56.31
2022-09-14T13:53:43.566Z,56.49
2022-09-14T13:56:28.231Z,56.36
2022-09-14T13:59:23.456Z,56.66
2022-09-14T14:01:59.730Z,56.47
2022-09-14T14:04:37.550Z,57.35
2022-09-14T14:07:20.990Z,58.07
2022-09-14T14:09:55.869Z,57.70
2022-09-14T14:12:30.564Z,56.17
2022-09-14T14:15:04.354Z,56.29
2022-09-14T14:17:39.013Z,56.67
2022-09-14T14:20:33.211Z,57.03
2022-09-14T14:23:24.125Z,57.34
2022-09-14T14:26:07.818Z,57.68
2022-09-14T14:28:40.999Z,57.16
2022-09-14T14:31:19.923Z,57.53
2022-09-14T14:33:53.504Z,58.04
2022-09-14T14:36:25.642Z,57.57
2022-09-14T14:38:58.588Z,57.57
2022-09-14T14:41:30.725Z,57.24
2022-09-14T14:44:03.162Z,57.65
2022-09-14T14:46:35.379Z,56.74
2022-09-14T14:49:09.249Z,56.36
2022-09-14T14:51:41.689Z,55.95
2022-09-14T14:54:16.818Z,55.40
2022-09-14T14:56:47.917Z,55.10
2022-09-14T14:59:31.020Z,55.07
2022-09-14T15:02:03.174Z,55.52
2022-09-14T15:04:35.285Z,56.16
2022-09-14T15:07:07.489Z,56.57
2022-09-14T15:09:39.503Z,56.33
2022-09-14T15:12:12.684Z,55.93
2022-09-14T15:14:44.681Z,56.32
2022-09-14T15:17:17.823Z,56.63
2022-09-14T15:19:50.151Z,57.32
2022-09-14T15:22:22.688Z,56.84
2022-09-14T15:24:54.781Z,56.88
2022-09-14T15:27:26.997Z,57.01
2022-09-14T15:29:59.942Z,57.63
2022-09-14T15:32:32.721Z,57.98
2022-09-14T15:35:05.054Z,58.00
2022-09-14T15:37:37.448Z,58.33
2022-09-14T15:40:11.891Z,58.65
2022-09-14T15:42:43.096Z,59.10
2022-09-14T15:45:15.105Z,58.75
2022-09-14T15:47:47.392Z,58.84
2022-09-14T15:50:22.666Z,58.79
2022-09-14T15:52:53.274Z,58.91
2022-09-14T15:55:25.869Z,59.36
2022-09-14T15:57:57.838Z,58.99
2022-09-14T16:00:29.851Z,58.61
2022-09-14T16:03:02.200Z,59.23
2022-09-14T16:05:37.951Z,59.14
2022-09-14T16:08:09.991Z,59.83
2022-09-14T16:10:42.555Z,60.13
2022-09-14T16:13:14.595Z,60.57
2022-09-14T16:15:46.562Z,60.91
2022-09-14T16:18:18.726Z,59.87
2022-09-14T16:20:50.893Z,60.43
2022-09-14T16:23:23.227Z,60.52
2022-09-14T16:25:55.527Z,61.32
2022-09-14T16:28:28.266Z,61.64
2022-09-14T16:31:09.273Z,60.99
2022-09-14T16:33:43.492Z,61.24
2022-09-14T16:36:18.825Z,61.40
2022-09-14T16:38:51.022Z,61.57
2022-09-14T16:41:23.043Z,61.95
2022-09-14T16:43:58.271Z,61.76
2022-09-14T16:46:31.753Z,62.39
2022-09-14T16:49:05.795Z,62.72
2022-09-14T16:51:38.632Z,62.45
2022-09-14T16:54:11.997Z,62.48
2022-09-14T16:56:44.778Z,62.94
2022-09-14T16:59:17.908Z,63.04
2022-09-14T17:01:54.599Z,63.14
2022-09-14T17:04:27.552Z,63.33
2022-09-14T17:07:00.467Z,63.28
2022-09-14T17:09:34.391Z,63.86
2022-09-14T17:12:07.277Z,62.58
2022-09-14T17:14:39.325Z,62.58
2022-09-14T17:17:11.300Z,62.49
2022-09-14T17:19:43.883Z,62.61
2022-09-14T17:22:16.787Z,63.36
2022-09-14T17:24:48.978Z,63.45
2022-09-14T17:27:21.083Z,63.41
2022-09-14T17:29:53.188Z,63.87
2022-09-14T17:32:25.277Z,63.83
2022-09-14T17:34:57.325Z,63.77
2022-09-14T17:37:29.321Z,63.44
2022-09-14T17:40:01.810Z,63.01
2022-09-14T17:42:34.247Z,63.30
2022-09-14T17:45:07.274Z,63.25
2022-09-14T17:47:40.017Z,63.04
2022-09-14T17:50:12.939Z,63.10
2022-09-14T17:52:45.148Z,62.77
2022-09-14T17:55:17.452Z,62.62
2022-09-14T17:57:49.897Z,62.58
2022-09-14T18:00:22.448Z,62.68
2022-09-14T18:02:55.076Z,62.44
2022-09-14T18:05:27.715Z,62.62
2022-09-14T18:07:59.692Z,62.99
2022-09-14T18:10:32.419Z,62.90
2022-09-14T18:13:04.452Z,62.95
2022-09-14T18:15:40.348Z,63.23
2022-09-14T18:18:12.733Z,62.90
2022-09-14T18:20:44.908Z,63.69
2022-09-14T18:23:25.994Z,63.49
2022-09-14T18:25:58.409Z,64.51
2022-09-14T18:28:30.596Z,64.45
2022-09-14T18:31:07.231Z,65.49
2022-09-14T18:33:39.699Z,65.77
2022-09-14T18:36:12.364Z,64.76
2022-09-14T18:38:45.196Z,64.13
2022-09-14T18:41:18.683Z,65.78
2022-09-14T18:43:55.944Z,66.39
2022-09-14T18:46:28.819Z,66.86
2022-09-14T18:49:03.223Z,66.88
2022-09-14T18:51:35.540Z,67.28
2022-09-14T18:54:11.048Z,67.78
2022-09-14T18:56:43.565Z,67.76
2022-09-14T18:59:16.898Z,68.14
2022-09-14T19:01:49.281Z,68.39
2022-09-14T19:04:21.603Z,68.72
2022-09-14T19:06:54.655Z,68.49
2022-09-14T19:09:27.333Z,67.99
2022-09-14T19:11:59.490Z,68.52
2022-09-14T19:14:32.317Z,67.73
2022-09-14T19:17:04.464Z,67.02
2022-09-14T19:19:36.524Z,67.06
2022-09-14T19:22:08.805Z,66.66
2022-09-14T19:24:41.366Z,66.56
2022-09-14T19:27:13.586Z,66.08
2022-09-14T19:29:46.369Z,67.28
2022-09-14T19:32:18.848Z,68.61
2022-09-14T19:34:51.112Z,68.77
2022-09-14T19:37:24.255Z,68.82
2022-09-14T19:39:57.898Z,69.06
2022-09-14T19:42:30.398Z,69.33
2022-09-14T19:45:03.113Z,69.60
2022-09-14T19:47:35.520Z,69.54
2022-09-14T19:50:10.070Z,69.81
2022-09-14T19:52:42.886Z,69.42
2022-09-14T19:55:15.757Z,69.75
2022-09-14T19:57:49.052Z,69.88
2022-09-14T20:00:22.956Z,69.90
2022-09-14T20:02:55.323Z,70.20
2022-09-14T20:05:31.024Z,70.15
2022-09-14T20:08:03.653Z,69.93
2022-09-14T20:10:37.446Z,70.22
2022-09-14T20:13:09.634Z,70.70
2022-09-14T20:15:42.452Z,70.68
2022-09-14T20:18:15.041Z,70.81
2022-09-14T20:20:47.025Z,71.06
2022-09-14T20:23:20.165Z,71.35
2022-09-14T20:25:52.721Z,71.30
2022-09-14T20:28:28.899Z,71.39
2022-09-14T20:31:02.490Z,71.35
2022-09-14T20:33:34.845Z,71.71
2022-09-14T20:36:09.683Z,71.38
2022-09-14T20:38:48.507Z,71.44
2022-09-14T20:41:23.210Z,71.86
2022-09-14T20:43:56.202Z,71.62
2022-09-14T20:46:31.928Z,71.51
2022-09-14T20:49:05.566Z,71.88
2022-09-14T20:51:39.058Z,72.02
2022-09-14T20:54:14.131Z,72.13
2022-09-14T20:56:47.502Z,72.18
2022-09-14T20:59:22.337Z,72.05
2022-09-14T21:01:54.838Z,72.00
2022-09-14T21:04:28.339Z,72.03
2022-09-14T21:07:00.266Z,72.08
2022-09-14T21:09:33.143Z,71.93
2022-09-14T21:12:05.686Z,71.86
2022-09-14T21:14:38.211Z,72.34
2022-09-14T21:17:10.383Z,72.22
2022-09-14T21:19:42.439Z,72.13
2022-09-14T21:22:14.361Z,72.36
2022-09-14T21:24:46.495Z,71.94
2022-09-14T21:27:18.871Z,72.36
2022-09-14T21:29:51.921Z,72.66
2022-09-14T21:32:24.338Z,72.37
2022-09-14T21:34:56.363Z,72.55
2022-09-14T21:37:30.017Z,72.47
2022-09-14T21:40:02.394Z,72.59
2022-09-14T21:42:34.438Z,73.09
2022-09-14T21:45:09.673Z,73.00
2022-09-14T21:47:41.692Z,72.75
2022-09-14T21:50:14.121Z,72.90
2022-09-14T21:52:46.308Z,72.96
2022-09-14T21:55:19.253Z,73.03
2022-09-14T21:57:51.782Z,72.95
2022-09-14T22:00:28.736Z,72.66
2022-09-14T22:03:02.974Z,73.20
2022-09-14T22:05:35.313Z,72.99
2022-09-14T22:08:07.283Z,73.20
2022-09-14T22:10:39.869Z,73.37
2022-09-14T22:13:11.826Z,73.24
2022-09-14T22:15:44.472Z,73.42
2022-09-14T22:18:16.761Z,73.25
2022-09-14T22:20:55.992Z,73.56
2022-09-14T22:23:28.246Z,73.44
2022-09-14T22:26:03.822Z,73.35
2022-09-14T22:28:36.041Z,73.80
2022-09-14T22:31:09.109Z,73.40
2022-09-14T22:33:41.504Z,73.79
2022-09-14T22:36:14.968Z,73.48
2022-09-14T22:38:47.566Z,73.45
2022-09-14T22:41:22.705Z,73.65
2022-09-14T22:43:56.236Z,73.49
2022-09-14T22:46:28.660Z,73.46
2022-09-14T22:49:00.607Z,73.91
2022-09-14T22:51:32.936Z,73.70
2022-09-14T22:54:05.225Z,74.00
2022-09-14T22:56:39.191Z,73.75
2022-09-14T22:59:12.396Z,73.83
2022-09-14T23:01:44.684Z,73.98
2022-09-14T23:04:16.788Z,73.95
2022-09-14T23:06:49.864Z,73.61
2022-09-14T23:09:23.092Z,73.84
2022-09-14T23:11:55.172Z,73.87
2022-09-14T23:14:27.933Z,73.60
2022-09-14T23:16:59.906Z,73.86
2022-09-14T23:19:31.964Z,73.61
2022-09-14T23:22:05.097Z,73.89
2022-09-14T23:24:37.052Z,73.86
2022-09-14T23:27:09.194Z,73.93
2022-09-14T23:29:41.401Z,73.78
2022-09-14T23:32:13.385Z,73.86
2022-09-14T23:34:45.349Z,74.09
2022-09-14T23:37:17.920Z,74.03
2022-09-14T23:39:50.215Z,74.19
2022-09-14T23:42:22.276Z,73.66
2022-09-14T23:44:54.860Z,73.92
2022-09-14T23:47:27.117Z,73.79
2022-09-14T23:49:59.304Z,74.18
2022-09-14T23:52:31.245Z,74.24
2022-09-14T23:55:03.771Z,73.94
2022-09-14T23:57:36.746Z,74.30
